Siedlce, Poland
Current Conditions -  °F | °C
As of 5:00 PM on Thursday 18 Dec 2014 (Local Time) from EPWA Reporting Station
Broken Clouds Broken Clouds  
Wind Chill: 43°   Ceiling: 3700
Heat Index: 43°   Visibility: 6mi
Dew Point: 41°   Wind: 3mph
Humidity: 93%   Direction: 250°WSW
Pressure: 29.83"   Gusts: NA
Location:  52.17°N, 22.28°E
Report Text: EPWA 181500Z 25003KT 210V280 9999 FEW015 BKN037 06/05 Q1010 NOSIG
Loading
Personal Weather Stations






























Interactive Weather Map New forecast layout! Learn more

10-Day Weather Forecast

Advertisements
Track Severe Weather on mobile